sensor_id;sensor_type;location;lat;lon;timestamp;P1;durP1;ratioP1;P2;durP2;ratioP2
66478;SDS011;53294;47.912;13.526;2023-05-07T00:00:21;4.38;;;2.65;;
66478;SDS011;53294;47.912;13.526;2023-05-07T00:02:47;4.38;;;2.80;;
66478;SDS011;53294;47.912;13.526;2023-05-07T00:05:14;4.40;;;2.85;;
66478;SDS011;53294;47.912;13.526;2023-05-07T00:07:41;5.47;;;3.10;;
66478;SDS011;53294;47.912;13.526;2023-05-07T00:10:09;4.78;;;3.20;;
66478;SDS011;53294;47.912;13.526;2023-05-07T00:12:39;5.85;;;3.50;;
66478;SDS011;53294;47.912;13.526;2023-05-07T00:15:07;5.53;;;3.10;;
66478;SDS011;53294;47.912;13.526;2023-05-07T00:17:34;4.57;;;2.83;;
66478;SDS011;53294;47.912;13.526;2023-05-07T00:20:02;6.00;;;3.00;;
66478;SDS011;53294;47.912;13.526;2023-05-07T00:22:30;7.85;;;3.35;;
66478;SDS011;53294;47.912;13.526;2023-05-07T00:24:57;4.88;;;3.00;;
66478;SDS011;53294;47.912;13.526;2023-05-07T00:27:24;6.20;;;3.00;;
66478;SDS011;53294;47.912;13.526;2023-05-07T00:29:51;5.63;;;2.95;;
66478;SDS011;53294;47.912;13.526;2023-05-07T00:32:18;5.57;;;3.20;;
66478;SDS011;53294;47.912;13.526;2023-05-07T00:34:44;5.57;;;2.90;;
66478;SDS011;53294;47.912;13.526;2023-05-07T00:37:11;5.57;;;2.78;;
66478;SDS011;53294;47.912;13.526;2023-05-07T00:39:38;5.53;;;2.67;;
66478;SDS011;53294;47.912;13.526;2023-05-07T00:42:04;5.75;;;2.83;;
66478;SDS011;53294;47.912;13.526;2023-05-07T00:44:31;4.45;;;2.83;;
66478;SDS011;53294;47.912;13.526;2023-05-07T00:46:58;4.93;;;2.90;;
66478;SDS011;53294;47.912;13.526;2023-05-07T00:49:33;5.93;;;2.83;;
66478;SDS011;53294;47.912;13.526;2023-05-07T00:52:11;4.90;;;3.10;;
66478;SDS011;53294;47.912;13.526;2023-05-07T00:54:40;5.07;;;3.03;;
66478;SDS011;53294;47.912;13.526;2023-05-07T00:57:09;3.75;;;2.70;;
66478;SDS011;53294;47.912;13.526;2023-05-07T00:59:37;4.85;;;2.80;;
66478;SDS011;53294;47.912;13.526;2023-05-07T01:02:04;5.25;;;3.67;;
66478;SDS011;53294;47.912;13.526;2023-05-07T01:04:31;6.47;;;3.90;;
66478;SDS011;53294;47.912;13.526;2023-05-07T01:06:58;5.15;;;3.15;;
66478;SDS011;53294;47.912;13.526;2023-05-07T01:09:27;5.63;;;3.80;;
66478;SDS011;53294;47.912;13.526;2023-05-07T01:11:55;8.40;;;3.50;;
66478;SDS011;53294;47.912;13.526;2023-05-07T01:14:24;5.65;;;3.20;;
66478;SDS011;53294;47.912;13.526;2023-05-07T01:16:52;4.07;;;2.78;;
66478;SDS011;53294;47.912;13.526;2023-05-07T01:19:19;5.82;;;3.55;;
66478;SDS011;53294;47.912;13.526;2023-05-07T01:21:47;6.45;;;3.20;;
66478;SDS011;53294;47.912;13.526;2023-05-07T01:24:15;7.05;;;3.25;;
66478;SDS011;53294;47.912;13.526;2023-05-07T01:26:43;7.97;;;4.20;;
66478;SDS011;53294;47.912;13.526;2023-05-07T01:29:12;6.97;;;3.70;;
66478;SDS011;53294;47.912;13.526;2023-05-07T01:31:40;4.97;;;3.55;;
66478;SDS011;53294;47.912;13.526;2023-05-07T01:34:08;6.05;;;3.58;;
66478;SDS011;53294;47.912;13.526;2023-05-07T01:36:38;5.25;;;3.28;;
66478;SDS011;53294;47.912;13.526;2023-05-07T01:39:06;6.47;;;3.35;;
66478;SDS011;53294;47.912;13.526;2023-05-07T01:41:35;5.43;;;3.40;;
66478;SDS011;53294;47.912;13.526;2023-05-07T01:44:02;6.75;;;3.20;;
66478;SDS011;53294;47.912;13.526;2023-05-07T01:46:30;5.30;;;3.08;;
66478;SDS011;53294;47.912;13.526;2023-05-07T01:48:57;4.82;;;3.20;;
66478;SDS011;53294;47.912;13.526;2023-05-07T01:51:25;5.85;;;3.40;;
66478;SDS011;53294;47.912;13.526;2023-05-07T01:53:52;5.00;;;2.95;;
66478;SDS011;53294;47.912;13.526;2023-05-07T01:56:19;5.60;;;2.97;;
66478;SDS011;53294;47.912;13.526;2023-05-07T01:58:47;4.50;;;2.75;;
66478;SDS011;53294;47.912;13.526;2023-05-07T02:01:14;6.03;;;2.78;;
66478;SDS011;53294;47.912;13.526;2023-05-07T02:03:41;5.30;;;3.30;;
66478;SDS011;53294;47.912;13.526;2023-05-07T02:06:08;4.55;;;3.05;;
66478;SDS011;53294;47.912;13.526;2023-05-07T02:08:35;5.85;;;2.88;;
66478;SDS011;53294;47.912;13.526;2023-05-07T02:11:01;7.18;;;3.50;;
66478;SDS011;53294;47.912;13.526;2023-05-07T02:13:29;6.18;;;3.50;;
66478;SDS011;53294;47.912;13.526;2023-05-07T02:15:57;6.30;;;4.00;;
66478;SDS011;53294;47.912;13.526;2023-05-07T02:18:24;8.57;;;3.60;;
66478;SDS011;53294;47.912;13.526;2023-05-07T02:20:51;4.88;;;3.15;;
66478;SDS011;53294;47.912;13.526;2023-05-07T02:23:18;5.88;;;3.20;;
66478;SDS011;53294;47.912;13.526;2023-05-07T02:25:44;5.50;;;3.00;;
66478;SDS011;53294;47.912;13.526;2023-05-07T02:28:12;4.80;;;3.13;;
66478;SDS011;53294;47.912;13.526;2023-05-07T02:30:39;6.10;;;3.28;;
66478;SDS011;53294;47.912;13.526;2023-05-07T02:33:06;6.93;;;3.22;;
66478;SDS011;53294;47.912;13.526;2023-05-07T02:35:34;5.63;;;3.40;;
66478;SDS011;53294;47.912;13.526;2023-05-07T02:38:01;5.07;;;3.40;;
66478;SDS011;53294;47.912;13.526;2023-05-07T02:40:29;5.38;;;3.38;;
66478;SDS011;53294;47.912;13.526;2023-05-07T02:42:55;6.43;;;3.45;;
66478;SDS011;53294;47.912;13.526;2023-05-07T02:45:22;5.72;;;3.33;;
66478;SDS011;53294;47.912;13.526;2023-05-07T02:47:49;6.88;;;3.85;;
66478;SDS011;53294;47.912;13.526;2023-05-07T02:50:15;6.75;;;3.20;;
66478;SDS011;53294;47.912;13.526;2023-05-07T02:52:42;4.90;;;3.03;;
66478;SDS011;53294;47.912;13.526;2023-05-07T02:55:09;4.05;;;2.83;;
66478;SDS011;53294;47.912;13.526;2023-05-07T02:57:36;6.13;;;3.60;;
66478;SDS011;53294;47.912;13.526;2023-05-07T03:00:14;5.18;;;2.85;;
66478;SDS011;53294;47.912;13.526;2023-05-07T03:02:43;5.93;;;3.33;;
66478;SDS011;53294;47.912;13.526;2023-05-07T03:05:10;4.40;;;2.97;;
66478;SDS011;53294;47.912;13.526;2023-05-07T03:07:38;7.07;;;3.40;;
66478;SDS011;53294;47.912;13.526;2023-05-07T03:10:05;5.93;;;3.55;;
66478;SDS011;53294;47.912;13.526;2023-05-07T03:12:32;5.28;;;2.80;;
66478;SDS011;53294;47.912;13.526;2023-05-07T03:14:59;4.82;;;2.72;;
66478;SDS011;53294;47.912;13.526;2023-05-07T03:17:25;4.32;;;2.78;;
66478;SDS011;53294;47.912;13.526;2023-05-07T03:19:52;4.75;;;2.67;;
66478;SDS011;53294;47.912;13.526;2023-05-07T03:22:19;4.60;;;3.00;;
66478;SDS011;53294;47.912;13.526;2023-05-07T03:24:45;5.25;;;2.80;;
66478;SDS011;53294;47.912;13.526;2023-05-07T03:27:12;4.30;;;3.05;;
66478;SDS011;53294;47.912;13.526;2023-05-07T03:29:39;4.75;;;2.90;;
66478;SDS011;53294;47.912;13.526;2023-05-07T03:32:05;7.63;;;3.10;;
66478;SDS011;53294;47.912;13.526;2023-05-07T03:34:32;5.28;;;3.28;;
66478;SDS011;53294;47.912;13.526;2023-05-07T03:36:59;6.20;;;3.20;;
66478;SDS011;53294;47.912;13.526;2023-05-07T03:39:26;4.97;;;3.28;;
66478;SDS011;53294;47.912;13.526;2023-05-07T03:41:53;6.22;;;2.95;;
66478;SDS011;53294;47.912;13.526;2023-05-07T03:44:20;5.43;;;3.30;;
66478;SDS011;53294;47.912;13.526;2023-05-07T03:46:46;6.95;;;3.28;;
66478;SDS011;53294;47.912;13.526;2023-05-07T03:49:13;5.22;;;2.97;;
66478;SDS011;53294;47.912;13.526;2023-05-07T03:51:40;5.68;;;2.97;;
66478;SDS011;53294;47.912;13.526;2023-05-07T03:54:07;4.40;;;3.20;;
66478;SDS011;53294;47.912;13.526;2023-05-07T03:56:34;6.05;;;3.60;;
66478;SDS011;53294;47.912;13.526;2023-05-07T03:59:01;6.53;;;3.80;;
66478;SDS011;53294;47.912;13.526;2023-05-07T04:01:27;5.18;;;3.00;;
66478;SDS011;53294;47.912;13.526;2023-05-07T04:03:55;6.68;;;3.10;;
66478;SDS011;53294;47.912;13.526;2023-05-07T04:06:22;4.53;;;3.08;;
66478;SDS011;53294;47.912;13.526;2023-05-07T04:08:48;7.22;;;3.20;;
66478;SDS011;53294;47.912;13.526;2023-05-07T04:11:15;6.68;;;3.58;;
66478;SDS011;53294;47.912;13.526;2023-05-07T04:13:42;7.25;;;3.85;;
66478;SDS011;53294;47.912;13.526;2023-05-07T04:16:08;6.38;;;3.95;;
66478;SDS011;53294;47.912;13.526;2023-05-07T04:18:35;5.95;;;3.30;;
66478;SDS011;53294;47.912;13.526;2023-05-07T04:21:02;7.25;;;4.15;;
66478;SDS011;53294;47.912;13.526;2023-05-07T04:23:29;7.20;;;4.10;;
66478;SDS011;53294;47.912;13.526;2023-05-07T04:25:55;6.75;;;3.85;;
66478;SDS011;53294;47.912;13.526;2023-05-07T04:28:23;6.28;;;3.38;;
66478;SDS011;53294;47.912;13.526;2023-05-07T04:30:50;6.28;;;3.55;;
66478;SDS011;53294;47.912;13.526;2023-05-07T04:33:17;5.93;;;3.58;;
66478;SDS011;53294;47.912;13.526;2023-05-07T04:35:43;5.65;;;3.45;;
66478;SDS011;53294;47.912;13.526;2023-05-07T04:38:10;5.43;;;3.58;;
66478;SDS011;53294;47.912;13.526;2023-05-07T04:40:37;5.55;;;3.20;;
66478;SDS011;53294;47.912;13.526;2023-05-07T04:43:05;6.93;;;3.13;;
66478;SDS011;53294;47.912;13.526;2023-05-07T04:45:31;5.78;;;3.20;;
66478;SDS011;53294;47.912;13.526;2023-05-07T04:47:58;4.85;;;3.25;;
66478;SDS011;53294;47.912;13.526;2023-05-07T04:50:25;5.05;;;3.42;;
66478;SDS011;53294;47.912;13.526;2023-05-07T04:52:52;5.30;;;3.08;;
66478;SDS011;53294;47.912;13.526;2023-05-07T04:55:19;4.75;;;3.00;;
66478;SDS011;53294;47.912;13.526;2023-05-07T04:57:46;8.70;;;4.05;;
66478;SDS011;53294;47.912;13.526;2023-05-07T05:00:13;4.30;;;3.13;;
66478;SDS011;53294;47.912;13.526;2023-05-07T05:02:40;6.45;;;3.70;;
66478;SDS011;53294;47.912;13.526;2023-05-07T05:05:07;6.05;;;3.50;;
66478;SDS011;53294;47.912;13.526;2023-05-07T05:07:34;5.50;;;3.15;;
66478;SDS011;53294;47.912;13.526;2023-05-07T05:10:01;5.80;;;3.63;;
66478;SDS011;53294;47.912;13.526;2023-05-07T05:12:29;5.13;;;3.10;;
66478;SDS011;53294;47.912;13.526;2023-05-07T05:14:56;6.00;;;3.35;;
66478;SDS011;53294;47.912;13.526;2023-05-07T05:17:23;5.57;;;3.17;;
66478;SDS011;53294;47.912;13.526;2023-05-07T05:19:50;4.60;;;3.20;;
66478;SDS011;53294;47.912;13.526;2023-05-07T05:22:17;5.40;;;3.58;;
66478;SDS011;53294;47.912;13.526;2023-05-07T05:24:43;5.18;;;3.42;;
66478;SDS011;53294;47.912;13.526;2023-05-07T05:27:10;5.28;;;3.38;;
66478;SDS011;53294;47.912;13.526;2023-05-07T05:29:37;6.13;;;3.17;;
66478;SDS011;53294;47.912;13.526;2023-05-07T05:32:03;5.25;;;3.20;;
66478;SDS011;53294;47.912;13.526;2023-05-07T05:34:30;5.45;;;3.03;;
66478;SDS011;53294;47.912;13.526;2023-05-07T05:36:59;4.65;;;2.90;;
66478;SDS011;53294;47.912;13.526;2023-05-07T05:39:26;4.70;;;3.20;;
66478;SDS011;53294;47.912;13.526;2023-05-07T05:41:52;5.00;;;3.20;;
66478;SDS011;53294;47.912;13.526;2023-05-07T05:44:19;5.00;;;3.20;;
66478;SDS011;53294;47.912;13.526;2023-05-07T05:46:46;4.75;;;3.22;;
66478;SDS011;53294;47.912;13.526;2023-05-07T05:49:13;6.35;;;4.32;;
66478;SDS011;53294;47.912;13.526;2023-05-07T05:51:39;6.90;;;4.00;;
66478;SDS011;53294;47.912;13.526;2023-05-07T05:54:06;5.72;;;4.20;;
66478;SDS011;53294;47.912;13.526;2023-05-07T05:56:33;5.10;;;4.05;;
66478;SDS011;53294;47.912;13.526;2023-05-07T05:59:00;7.05;;;4.03;;
66478;SDS011;53294;47.912;13.526;2023-05-07T06:01:26;7.43;;;4.40;;
66478;SDS011;53294;47.912;13.526;2023-05-07T06:03:53;8.18;;;4.15;;
66478;SDS011;53294;47.912;13.526;2023-05-07T06:06:20;7.90;;;5.40;;
66478;SDS011;53294;47.912;13.526;2023-05-07T06:08:46;9.48;;;5.53;;
66478;SDS011;53294;47.912;13.526;2023-05-07T06:11:13;8.52;;;6.20;;
66478;SDS011;53294;47.912;13.526;2023-05-07T06:13:40;10.98;;;7.78;;
66478;SDS011;53294;47.912;13.526;2023-05-07T06:16:06;11.27;;;8.70;;
66478;SDS011;53294;47.912;13.526;2023-05-07T06:18:33;11.85;;;7.57;;
66478;SDS011;53294;47.912;13.526;2023-05-07T06:21:02;12.43;;;8.43;;
66478;SDS011;53294;47.912;13.526;2023-05-07T06:23:28;14.32;;;9.02;;
66478;SDS011;53294;47.912;13.526;2023-05-07T06:25:55;9.77;;;7.30;;
66478;SDS011;53294;47.912;13.526;2023-05-07T06:28:22;10.93;;;7.80;;
66478;SDS011;53294;47.912;13.526;2023-05-07T06:30:48;11.73;;;8.40;;
66478;SDS011;53294;47.912;13.526;2023-05-07T06:33:16;13.40;;;9.02;;
66478;SDS011;53294;47.912;13.526;2023-05-07T06:35:42;14.45;;;9.40;;
66478;SDS011;53294;47.912;13.526;2023-05-07T06:38:09;15.43;;;10.70;;
66478;SDS011;53294;47.912;13.526;2023-05-07T06:40:36;14.98;;;10.70;;
66478;SDS011;53294;47.912;13.526;2023-05-07T06:43:03;13.60;;;9.65;;
66478;SDS011;53294;47.912;13.526;2023-05-07T06:45:30;14.32;;;10.32;;
66478;SDS011;53294;47.912;13.526;2023-05-07T06:47:56;14.70;;;9.38;;
66478;SDS011;53294;47.912;13.526;2023-05-07T06:50:23;12.30;;;8.10;;
66478;SDS011;53294;47.912;13.526;2023-05-07T06:52:50;11.32;;;8.00;;
66478;SDS011;53294;47.912;13.526;2023-05-07T06:55:16;11.20;;;8.30;;
66478;SDS011;53294;47.912;13.526;2023-05-07T06:57:43;15.68;;;8.82;;
66478;SDS011;53294;47.912;13.526;2023-05-07T07:00:10;13.07;;;8.77;;
66478;SDS011;53294;47.912;13.526;2023-05-07T07:02:37;13.55;;;8.40;;
66478;SDS011;53294;47.912;13.526;2023-05-07T07:05:04;14.40;;;10.23;;
66478;SDS011;53294;47.912;13.526;2023-05-07T07:07:31;10.68;;;7.80;;
66478;SDS011;53294;47.912;13.526;2023-05-07T07:09:58;10.50;;;8.20;;
66478;SDS011;53294;47.912;13.526;2023-05-07T07:12:24;10.43;;;7.88;;
66478;SDS011;53294;47.912;13.526;2023-05-07T07:14:52;10.30;;;8.00;;
66478;SDS011;53294;47.912;13.526;2023-05-07T07:17:20;10.48;;;7.47;;
66478;SDS011;53294;47.912;13.526;2023-05-07T07:19:47;8.95;;;6.53;;
66478;SDS011;53294;47.912;13.526;2023-05-07T07:22:13;11.05;;;7.50;;
66478;SDS011;53294;47.912;13.526;2023-05-07T07:24:40;11.50;;;7.63;;
66478;SDS011;53294;47.912;13.526;2023-05-07T07:27:07;10.75;;;6.95;;
66478;SDS011;53294;47.912;13.526;2023-05-07T07:29:34;8.52;;;7.47;;
66478;SDS011;53294;47.912;13.526;2023-05-07T07:32:00;10.77;;;7.32;;
66478;SDS011;53294;47.912;13.526;2023-05-07T07:34:27;12.52;;;7.90;;
66478;SDS011;53294;47.912;13.526;2023-05-07T07:36:54;10.98;;;8.20;;
66478;SDS011;53294;47.912;13.526;2023-05-07T07:39:20;11.43;;;9.13;;
66478;SDS011;53294;47.912;13.526;2023-05-07T07:41:47;10.80;;;6.97;;
66478;SDS011;53294;47.912;13.526;2023-05-07T07:44:13;9.88;;;7.95;;
66478;SDS011;53294;47.912;13.526;2023-05-07T07:46:41;8.23;;;6.20;;
66478;SDS011;53294;47.912;13.526;2023-05-07T07:49:08;8.07;;;5.70;;
66478;SDS011;53294;47.912;13.526;2023-05-07T07:51:35;7.57;;;4.80;;
66478;SDS011;53294;47.912;13.526;2023-05-07T07:54:02;6.50;;;4.45;;
66478;SDS011;53294;47.912;13.526;2023-05-07T07:56:29;7.57;;;4.97;;
66478;SDS011;53294;47.912;13.526;2023-05-07T07:58:55;6.20;;;4.20;;
66478;SDS011;53294;47.912;13.526;2023-05-07T08:01:22;6.45;;;4.55;;
66478;SDS011;53294;47.912;13.526;2023-05-07T08:03:49;7.05;;;5.03;;
66478;SDS011;53294;47.912;13.526;2023-05-07T08:06:16;7.82;;;5.05;;
66478;SDS011;53294;47.912;13.526;2023-05-07T08:08:43;7.63;;;4.93;;
66478;SDS011;53294;47.912;13.526;2023-05-07T08:11:10;5.47;;;4.13;;
66478;SDS011;53294;47.912;13.526;2023-05-07T08:13:36;8.15;;;4.97;;
66478;SDS011;53294;47.912;13.526;2023-05-07T08:16:04;7.20;;;5.10;;
66478;SDS011;53294;47.912;13.526;2023-05-07T08:18:31;5.85;;;4.38;;
66478;SDS011;53294;47.912;13.526;2023-05-07T08:20:58;7.38;;;4.95;;
66478;SDS011;53294;47.912;13.526;2023-05-07T08:23:25;7.25;;;4.63;;
66478;SDS011;53294;47.912;13.526;2023-05-07T08:25:53;7.32;;;4.57;;
66478;SDS011;53294;47.912;13.526;2023-05-07T08:28:19;5.72;;;4.68;;
66478;SDS011;53294;47.912;13.526;2023-05-07T08:30:47;5.70;;;4.60;;
66478;SDS011;53294;47.912;13.526;2023-05-07T08:33:14;7.05;;;5.95;;
66478;SDS011;53294;47.912;13.526;2023-05-07T08:35:41;5.82;;;4.85;;
66478;SDS011;53294;47.912;13.526;2023-05-07T08:38:07;8.20;;;5.20;;
66478;SDS011;53294;47.912;13.526;2023-05-07T08:40:38;7.22;;;4.97;;
66478;SDS011;53294;47.912;13.526;2023-05-07T08:43:05;5.80;;;4.65;;
66478;SDS011;53294;47.912;13.526;2023-05-07T08:45:33;6.10;;;4.65;;
66478;SDS011;53294;47.912;13.526;2023-05-07T08:48:02;6.28;;;4.82;;
66478;SDS011;53294;47.912;13.526;2023-05-07T08:50:32;5.57;;;4.35;;
66478;SDS011;53294;47.912;13.526;2023-05-07T08:53:05;7.10;;;4.90;;
66478;SDS011;53294;47.912;13.526;2023-05-07T08:55:32;6.15;;;4.53;;
66478;SDS011;53294;47.912;13.526;2023-05-07T08:57:59;7.60;;;5.85;;
66478;SDS011;53294;47.912;13.526;2023-05-07T09:00:27;6.93;;;4.88;;
66478;SDS011;53294;47.912;13.526;2023-05-07T09:02:54;6.93;;;5.07;;
66478;SDS011;53294;47.912;13.526;2023-05-07T09:05:20;7.70;;;5.38;;
66478;SDS011;53294;47.912;13.526;2023-05-07T09:07:47;6.75;;;4.45;;
66478;SDS011;53294;47.912;13.526;2023-05-07T09:10:14;5.57;;;4.07;;
66478;SDS011;53294;47.912;13.526;2023-05-07T09:12:41;5.55;;;4.32;;
66478;SDS011;53294;47.912;13.526;2023-05-07T09:15:07;6.00;;;4.25;;
66478;SDS011;53294;47.912;13.526;2023-05-07T09:17:35;6.25;;;4.93;;
66478;SDS011;53294;47.912;13.526;2023-05-07T09:20:02;7.70;;;5.50;;
66478;SDS011;53294;47.912;13.526;2023-05-07T09:22:33;6.88;;;4.82;;
66478;SDS011;53294;47.912;13.526;2023-05-07T09:25:02;6.82;;;4.63;;
66478;SDS011;53294;47.912;13.526;2023-05-07T09:27:30;7.93;;;5.63;;
66478;SDS011;53294;47.912;13.526;2023-05-07T09:29:56;6.05;;;5.20;;
66478;SDS011;53294;47.912;13.526;2023-05-07T09:32:24;6.28;;;5.55;;
66478;SDS011;53294;47.912;13.526;2023-05-07T09:34:51;6.75;;;4.57;;
66478;SDS011;53294;47.912;13.526;2023-05-07T09:37:18;7.10;;;5.65;;
66478;SDS011;53294;47.912;13.526;2023-05-07T09:39:46;5.88;;;5.00;;
66478;SDS011;53294;47.912;13.526;2023-05-07T09:42:14;7.28;;;5.60;;
66478;SDS011;53294;47.912;13.526;2023-05-07T09:44:43;7.57;;;5.50;;
66478;SDS011;53294;47.912;13.526;2023-05-07T09:47:10;7.13;;;4.97;;
66478;SDS011;53294;47.912;13.526;2023-05-07T09:49:43;7.28;;;5.50;;
66478;SDS011;53294;47.912;13.526;2023-05-07T09:52:14;8.05;;;6.70;;
66478;SDS011;53294;47.912;13.526;2023-05-07T09:54:42;7.28;;;4.95;;
66478;SDS011;53294;47.912;13.526;2023-05-07T09:57:11;7.40;;;5.93;;
66478;SDS011;53294;47.912;13.526;2023-05-07T09:59:38;7.13;;;5.38;;
66478;SDS011;53294;47.912;13.526;2023-05-07T10:02:06;7.35;;;5.63;;
66478;SDS011;53294;47.912;13.526;2023-05-07T10:04:36;7.65;;;6.85;;
66478;SDS011;53294;47.912;13.526;2023-05-07T10:07:03;7.93;;;5.93;;
66478;SDS011;53294;47.912;13.526;2023-05-07T10:09:31;7.40;;;5.90;;
66478;SDS011;53294;47.912;13.526;2023-05-07T10:11:58;7.43;;;6.63;;
66478;SDS011;53294;47.912;13.526;2023-05-07T10:14:26;10.05;;;7.05;;
66478;SDS011;53294;47.912;13.526;2023-05-07T10:16:54;9.57;;;6.93;;
66478;SDS011;53294;47.912;13.526;2023-05-07T10:19:21;8.35;;;6.38;;
66478;SDS011;53294;47.912;13.526;2023-05-07T10:21:51;9.65;;;7.55;;
66478;SDS011;53294;47.912;13.526;2023-05-07T10:24:26;9.07;;;7.25;;
66478;SDS011;53294;47.912;13.526;2023-05-07T10:27:05;10.15;;;7.10;;
66478;SDS011;53294;47.912;13.526;2023-05-07T10:34:44;8.88;;;6.43;;
66478;SDS011;53294;47.912;13.526;2023-05-07T10:37:13;8.50;;;6.70;;
66478;SDS011;53294;47.912;13.526;2023-05-07T10:39:40;7.35;;;6.00;;
66478;SDS011;53294;47.912;13.526;2023-05-07T10:42:08;8.82;;;7.28;;
66478;SDS011;53294;47.912;13.526;2023-05-07T10:44:39;8.57;;;6.32;;
66478;SDS011;53294;47.912;13.526;2023-05-07T10:47:09;9.32;;;7.25;;
66478;SDS011;53294;47.912;13.526;2023-05-07T10:52:34;8.02;;;6.40;;
66478;SDS011;53294;47.912;13.526;2023-05-07T10:57:46;6.95;;;5.22;;
66478;SDS011;53294;47.912;13.526;2023-05-07T11:05:29;7.37;;;6.40;;
66478;SDS011;53294;47.912;13.526;2023-05-07T11:08:00;6.38;;;4.72;;
66478;SDS011;53294;47.912;13.526;2023-05-07T11:13:40;6.28;;;4.60;;
66478;SDS011;53294;47.912;13.526;2023-05-07T11:18:47;6.72;;;5.15;;
66478;SDS011;53294;47.912;13.526;2023-05-07T11:24:01;7.00;;;4.97;;
66478;SDS011;53294;47.912;13.526;2023-05-07T11:26:29;5.85;;;4.45;;
66478;SDS011;53294;47.912;13.526;2023-05-07T11:28:57;7.53;;;5.50;;
66478;SDS011;53294;47.912;13.526;2023-05-07T11:31:26;6.50;;;4.40;;
66478;SDS011;53294;47.912;13.526;2023-05-07T11:33:55;5.60;;;3.92;;
66478;SDS011;53294;47.912;13.526;2023-05-07T11:36:23;6.15;;;4.28;;
66478;SDS011;53294;47.912;13.526;2023-05-07T11:38:50;5.15;;;3.80;;
66478;SDS011;53294;47.912;13.526;2023-05-07T11:41:17;4.78;;;3.38;;
66478;SDS011;53294;47.912;13.526;2023-05-07T11:43:55;6.45;;;4.00;;
66478;SDS011;53294;47.912;13.526;2023-05-07T11:46:23;6.43;;;4.15;;
66478;SDS011;53294;47.912;13.526;2023-05-07T11:48:50;5.47;;;3.72;;
66478;SDS011;53294;47.912;13.526;2023-05-07T11:51:20;6.20;;;3.80;;
66478;SDS011;53294;47.912;13.526;2023-05-07T11:53:48;6.30;;;3.90;;
66478;SDS011;53294;47.912;13.526;2023-05-07T11:56:16;5.15;;;3.75;;
66478;SDS011;53294;47.912;13.526;2023-05-07T11:58:44;7.40;;;4.72;;
66478;SDS011;53294;47.912;13.526;2023-05-07T12:01:12;9.93;;;4.30;;
66478;SDS011;53294;47.912;13.526;2023-05-07T12:03:40;5.97;;;4.03;;
66478;SDS011;53294;47.912;13.526;2023-05-07T12:06:09;4.65;;;3.22;;
66478;SDS011;53294;47.912;13.526;2023-05-07T12:08:41;5.82;;;4.20;;
66478;SDS011;53294;47.912;13.526;2023-05-07T12:11:29;7.70;;;3.92;;
66478;SDS011;53294;47.912;13.526;2023-05-07T12:13:56;6.32;;;4.00;;
66478;SDS011;53294;47.912;13.526;2023-05-07T12:16:25;5.00;;;3.50;;
66478;SDS011;53294;47.912;13.526;2023-05-07T12:18:52;6.82;;;3.63;;
66478;SDS011;53294;47.912;13.526;2023-05-07T12:21:21;5.65;;;3.60;;
66478;SDS011;53294;47.912;13.526;2023-05-07T12:23:48;5.55;;;3.20;;
66478;SDS011;53294;47.912;13.526;2023-05-07T12:26:15;4.70;;;2.85;;
66478;SDS011;53294;47.912;13.526;2023-05-07T12:28:42;4.13;;;2.45;;
66478;SDS011;53294;47.912;13.526;2023-05-07T12:31:09;4.75;;;3.20;;
66478;SDS011;53294;47.912;13.526;2023-05-07T12:33:36;5.30;;;3.00;;
66478;SDS011;53294;47.912;13.526;2023-05-07T12:36:05;3.67;;;2.40;;
66478;SDS011;53294;47.912;13.526;2023-05-07T12:38:36;4.10;;;2.70;;
66478;SDS011;53294;47.912;13.526;2023-05-07T12:41:04;4.35;;;2.60;;
66478;SDS011;53294;47.912;13.526;2023-05-07T12:43:33;3.75;;;2.28;;
66478;SDS011;53294;47.912;13.526;2023-05-07T12:46:01;3.85;;;2.40;;
66478;SDS011;53294;47.912;13.526;2023-05-07T12:48:30;4.13;;;2.50;;
66478;SDS011;53294;47.912;13.526;2023-05-07T12:50:57;4.15;;;2.85;;
66478;SDS011;53294;47.912;13.526;2023-05-07T12:53:26;6.50;;;3.00;;
66478;SDS011;53294;47.912;13.526;2023-05-07T12:55:57;4.53;;;3.30;;
66478;SDS011;53294;47.912;13.526;2023-05-07T13:00:53;7.93;;;3.40;;
66478;SDS011;53294;47.912;13.526;2023-05-07T13:03:21;4.28;;;2.90;;
66478;SDS011;53294;47.912;13.526;2023-05-07T13:05:50;4.72;;;3.38;;
66478;SDS011;53294;47.912;13.526;2023-05-07T13:08:28;5.40;;;3.10;;
66478;SDS011;53294;47.912;13.526;2023-05-07T13:11:10;4.10;;;2.70;;
66478;SDS011;53294;47.912;13.526;2023-05-07T13:13:38;5.45;;;3.00;;
66478;SDS011;53294;47.912;13.526;2023-05-07T13:16:07;4.57;;;2.75;;
66478;SDS011;53294;47.912;13.526;2023-05-07T13:18:35;4.57;;;3.25;;
66478;SDS011;53294;47.912;13.526;2023-05-07T13:21:02;5.28;;;3.28;;
66478;SDS011;53294;47.912;13.526;2023-05-07T13:23:29;6.03;;;3.13;;
66478;SDS011;53294;47.912;13.526;2023-05-07T13:25:56;4.97;;;3.10;;
66478;SDS011;53294;47.912;13.526;2023-05-07T13:28:23;6.22;;;3.30;;
66478;SDS011;53294;47.912;13.526;2023-05-07T13:30:50;4.85;;;3.08;;
66478;SDS011;53294;47.912;13.526;2023-05-07T13:33:21;4.72;;;3.40;;
66478;SDS011;53294;47.912;13.526;2023-05-07T13:35:47;5.75;;;3.13;;
66478;SDS011;53294;47.912;13.526;2023-05-07T13:38:14;5.15;;;3.00;;
66478;SDS011;53294;47.912;13.526;2023-05-07T13:40:42;5.10;;;3.00;;
66478;SDS011;53294;47.912;13.526;2023-05-07T13:43:09;5.53;;;3.13;;
66478;SDS011;53294;47.912;13.526;2023-05-07T13:45:36;4.82;;;2.92;;
66478;SDS011;53294;47.912;13.526;2023-05-07T13:48:03;3.88;;;2.70;;
66478;SDS011;53294;47.912;13.526;2023-05-07T13:50:30;4.78;;;2.83;;
66478;SDS011;53294;47.912;13.526;2023-05-07T13:52:57;5.45;;;2.85;;
66478;SDS011;53294;47.912;13.526;2023-05-07T13:55:24;4.35;;;2.55;;
66478;SDS011;53294;47.912;13.526;2023-05-07T13:57:55;4.25;;;2.60;;
66478;SDS011;53294;47.912;13.526;2023-05-07T14:00:23;4.95;;;2.63;;
66478;SDS011;53294;47.912;13.526;2023-05-07T14:02:51;5.35;;;2.50;;
66478;SDS011;53294;47.912;13.526;2023-05-07T14:05:18;4.20;;;2.50;;
66478;SDS011;53294;47.912;13.526;2023-05-07T14:07:44;4.65;;;2.50;;
66478;SDS011;53294;47.912;13.526;2023-05-07T14:10:11;6.85;;;2.58;;
66478;SDS011;53294;47.912;13.526;2023-05-07T14:12:39;3.65;;;2.15;;
66478;SDS011;53294;47.912;13.526;2023-05-07T14:15:07;3.50;;;2.10;;
66478;SDS011;53294;47.912;13.526;2023-05-07T14:17:34;3.72;;;2.40;;
66478;SDS011;53294;47.912;13.526;2023-05-07T14:20:01;2.92;;;1.92;;
66478;SDS011;53294;47.912;13.526;2023-05-07T14:22:28;3.90;;;2.30;;
66478;SDS011;53294;47.912;13.526;2023-05-07T14:24:55;3.85;;;2.35;;
66478;SDS011;53294;47.912;13.526;2023-05-07T14:27:32;4.18;;;1.92;;
66478;SDS011;53294;47.912;13.526;2023-05-07T14:29:59;4.07;;;2.13;;
66478;SDS011;53294;47.912;13.526;2023-05-07T14:32:26;4.28;;;2.03;;
66478;SDS011;53294;47.912;13.526;2023-05-07T14:34:52;4.15;;;2.25;;
66478;SDS011;53294;47.912;13.526;2023-05-07T14:37:19;3.00;;;2.05;;
66478;SDS011;53294;47.912;13.526;2023-05-07T14:39:46;5.32;;;2.33;;
66478;SDS011;53294;47.912;13.526;2023-05-07T14:42:16;3.45;;;2.28;;
66478;SDS011;53294;47.912;13.526;2023-05-07T14:44:43;3.90;;;2.28;;
66478;SDS011;53294;47.912;13.526;2023-05-07T14:47:12;4.63;;;2.53;;
66478;SDS011;53294;47.912;13.526;2023-05-07T14:49:39;3.45;;;2.10;;
66478;SDS011;53294;47.912;13.526;2023-05-07T14:52:07;3.47;;;1.98;;
66478;SDS011;53294;47.912;13.526;2023-05-07T14:54:36;3.15;;;1.88;;
66478;SDS011;53294;47.912;13.526;2023-05-07T14:57:05;4.47;;;1.70;;
66478;SDS011;53294;47.912;13.526;2023-05-07T14:59:32;3.95;;;2.20;;
66478;SDS011;53294;47.912;13.526;2023-05-07T15:01:59;3.92;;;2.03;;